Hinode Maru — JD3758 — position and weather

sailwx.info

Track history (hours):
 
Tides and Currents Weather Stations Pressure Air Temp Water Temp Dewpoint Dewpoint Depression Visibility Wind Speed Wind Dir Waves Ship Positions

Hinode Maru

Last reported at 2018-Apr-23 05:00 UTC. Time now 2018-Apr-23 05:21 UTC.
Position N 35°39' E 139°46'.

Length 33 m; draft 3.8 m.

Type: Tug. MMSI: 431005882.

Date/timePositionNaut miles runAvg speedWind from/ knotsBaromVisibWave heightAir tempDewpointWater temp
2018-Apr-23 05:00N 35°39' E 139°46'0 0.0
2018-Apr-23 04:30N 35°39' E 139°46'0 0.0
2018-Apr-23 03:12N 35°39' E 139°46'0 0.0
2018-Apr-23 02:55N 35°39' E 139°46'0 0.0
2018-Apr-23 02:29N 35°39' E 139°46'0 0.0
2018-Apr-23 01:59N 35°39' E 139°46'0 0.0
2018-Apr-23 01:29N 35°39' E 139°46'0 0.0
2018-Apr-23 00:59N 35°39' E 139°46'0 0.0
2018-Apr-23 00:28N 35°39' E 139°46'0 0.0
2018-Apr-22 23:59N 35°39' E 139°46'0 0.0
2018-Apr-22 23:30N 35°39' E 139°46'0 0.0
2018-Apr-22 22:57N 35°39' E 139°46'0 0.0
2018-Apr-22 22:30N 35°39' E 139°46'0 0.0
2018-Apr-22 21:59N 35°39' E 139°46'0 0.0
2018-Apr-22 21:30N 35°39' E 139°46'0 0.0
2018-Apr-22 20:56N 35°39' E 139°46'0 0.0
2018-Apr-22 20:30N 35°39' E 139°46'0 0.0
2018-Apr-22 19:58N 35°39' E 139°46'0 0.0
2018-Apr-22 19:28N 35°39' E 139°46'0 0.0
2018-Apr-22 18:59N 35°39' E 139°46'0 0.0
2018-Apr-22 18:29N 35°39' E 139°46'0 0.0
2018-Apr-22 17:22N 35°39' E 139°46'0 0.0
2018-Apr-22 16:58N 35°39' E 139°46'0 0.0
2018-Apr-22 16:30N 35°39' E 139°46'0 0.0
2018-Apr-22 16:00N 35°39' E 139°46'0 0.0
2018-Apr-22 15:29N 35°39' E 139°46'0 0.0
2018-Apr-22 15:00N 35°39' E 139°46'0 0.0
2018-Apr-22 14:30N 35°39' E 139°46'0 0.0
2018-Apr-22 14:00N 35°39' E 139°46'0 0.0
2018-Apr-22 13:28N 35°39' E 139°46'0 0.0
2018-Apr-22 13:00N 35°39' E 139°46'0 0.0
2018-Apr-22 12:30N 35°39' E 139°46'0 0.0
2018-Apr-22 12:00N 35°39' E 139°46'0 0.0
2018-Apr-22 11:30N 35°39' E 139°46'0 0.0
2018-Apr-22 10:59N 35°39' E 139°46'0 0.0
2018-Apr-22 10:30N 35°39' E 139°46'2 4.9
2018-Apr-22 10:00N 35°36' E 139°46'0 0.4
2018-Apr-22 09:30N 35°36' E 139°46'3 6.6
2018-Apr-22 09:00N 35°34' E 139°49'0 0.8
2018-Apr-22 08:30N 35°34' E 139°49'3 5.4
2018-Apr-22 08:00N 35°36' E 139°47'0 0.3
2018-Apr-22 07:30N 35°36' E 139°47'1 2.4
2018-Apr-22 07:00N 35°37' E 139°46'2 3.3
2018-Apr-22 06:29N 35°39' E 139°46'0 0.0
2018-Apr-22 05:55N 35°39' E 139°46'0 0.0
2018-Apr-22 05:30N 35°39' E 139°46'0 0.0
2018-Apr-22 05:00N 35°39' E 139°46'0 0.0
2018-Apr-22 04:30N 35°39' E 139°46'0 0.0
2018-Apr-22 04:00N 35°39' E 139°46'0 0.0
2018-Apr-22 03:29N 35°39' E 139°46'0 0.0
2018-Apr-22 03:00N 35°39' E 139°46'0 0.0
2018-Apr-22 02:30N 35°39' E 139°46'0 0.0
2018-Apr-22 01:57N 35°39' E 139°46'0 0.0
2018-Apr-22 01:30N 35°39' E 139°46'0 0.0
2018-Apr-22 00:58N 35°39' E 139°46'0 0.0
2018-Apr-22 00:30N 35°39' E 139°46'0 0.0
2018-Apr-21 23:59N 35°39' E 139°46'0 0.0
2018-Apr-21 23:30N 35°39' E 139°46'0 0.0
2018-Apr-21 23:00N 35°39' E 139°46'0 0.0
2018-Apr-21 22:30N 35°39' E 139°46'0 0.0
2018-Apr-21 21:59N 35°39' E 139°46'0 0.0
2018-Apr-21 21:30N 35°39' E 139°46'0 0.0
2018-Apr-21 20:56N 35°39' E 139°46'0 0.0
2018-Apr-21 20:30N 35°39' E 139°46'0 0.0
2018-Apr-21 19:56N 35°39' E 139°46'0 0.0
2018-Apr-21 19:25N 35°39' E 139°46'0 0.0
2018-Apr-21 19:00N 35°39' E 139°46'0 0.0
2018-Apr-21 18:29N 35°39' E 139°46'0 0.0
2018-Apr-21 18:00N 35°39' E 139°46'0 0.0
2018-Apr-21 17:29N 35°39' E 139°46'0 0.0
2018-Apr-21 16:59N 35°39' E 139°46'0 0.0
2018-Apr-21 16:26N 35°39' E 139°46'0 0.0
2018-Apr-21 15:53N 35°39' E 139°46'0 0.0
2018-Apr-21 15:30N 35°39' E 139°46'0 0.0
2018-Apr-21 14:58N 35°39' E 139°46'0 0.0
2018-Apr-21 14:24N 35°39' E 139°46'0 0.0
2018-Apr-21 14:00N 35°39' E 139°46'0 0.0
2018-Apr-21 13:25N 35°39' E 139°46'0 0.0
2018-Apr-21 12:53N 35°39' E 139°46'0 0.0
2018-Apr-21 12:27N 35°39' E 139°46'0 0.0
2018-Apr-21 11:58N 35°39' E 139°46'2 5.4
2018-Apr-21 11:30N 35°36' E 139°46'0 0.3
2018-Apr-21 11:00N 35°36' E 139°46'2 4.5
2018-Apr-21 10:30N 35°35' E 139°48'3 6.3
2018-Apr-21 10:00N 35°37' E 139°46'2 2.9
2018-Apr-21 09:27N 35°36' E 139°46'0 0.7
2018-Apr-21 08:58N 35°36' E 139°47'2 5.4
2018-Apr-21 08:30N 35°34' E 139°49'3 6.8
2018-Apr-21 08:00N 35°37' E 139°46'0 0.4
2018-Apr-21 07:31N 35°37' E 139°47'0 0.7
2018-Apr-21 07:00N 35°37' E 139°46'2 4.2
2018-Apr-21 06:30N 35°39' E 139°46'0 0.0
2018-Apr-21 05:59N 35°39' E 139°46'0 0.0
2018-Apr-21 05:28N 35°39' E 139°46'0 0.0
2018-Apr-21 05:00N 35°39' E 139°46'0 0.0
2018-Apr-21 04:27N 35°39' E 139°46'0 0.0
2018-Apr-21 03:54N 35°39' E 139°46'0 0.0
2018-Apr-21 03:29N 35°39' E 139°46'0 0.0
2018-Apr-21 02:54N 35°39' E 139°46'0 0.0
2018-Apr-21 02:27N 35°39' E 139°46'0 0.0
2018-Apr-21 02:00N 35°39' E 139°46'0 0.0
2018-Apr-21 01:30N 35°39' E 139°46'0 0.0
2018-Apr-21 00:58N 35°39' E 139°46'0 0.0
2018-Apr-21 00:30N 35°39' E 139°46'0 0.0
2018-Apr-21 00:00N 35°39' E 139°46'0 0.0
2018-Apr-20 23:29N 35°39' E 139°46'0 0.0
2018-Apr-20 22:57N 35°39' E 139°46'0 0.0
2018-Apr-20 22:28N 35°39' E 139°46'0 0.0
2018-Apr-20 22:00N 35°39' E 139°46'0 0.0
2018-Apr-20 21:30N 35°39' E 139°46'0 0.0
2018-Apr-20 21:00N 35°39' E 139°46'0 0.0
2018-Apr-20 20:30N 35°39' E 139°46'0 0.0
2018-Apr-20 20:00N 35°39' E 139°46'0 0.0
2018-Apr-20 19:30N 35°39' E 139°46'0 0.0
2018-Apr-20 19:00N 35°39' E 139°46'0 0.0
2018-Apr-20 18:28N 35°39' E 139°46'0 0.0
2018-Apr-20 18:00N 35°39' E 139°46'0 0.0
2018-Apr-20 17:29N 35°39' E 139°46'0 0.0
2018-Apr-20 17:00N 35°39' E 139°46'0 0.0
2018-Apr-20 16:11N 35°39' E 139°46'0 0.0
2018-Apr-20 15:59N 35°39' E 139°46'0 0.0
2018-Apr-20 15:29N 35°39' E 139°46'0 0.0
2018-Apr-20 15:00N 35°39' E 139°46'0 0.0
2018-Apr-20 14:30N 35°39' E 139°46'0 0.0
2018-Apr-20 13:59N 35°39' E 139°46'0 0.0
2018-Apr-20 13:30N 35°39' E 139°46'0 0.0
2018-Apr-20 13:00N 35°39' E 139°46'0 0.0
2018-Apr-20 12:30N 35°39' E 139°46'0 0.0
2018-Apr-20 12:00N 35°39' E 139°46'0 0.0
2018-Apr-20 11:30N 35°39' E 139°46'0 0.0
2018-Apr-20 10:58N 35°39' E 139°46'0 0.0
2018-Apr-20 10:30N 35°39' E 139°46'0 0.0
2018-Apr-20 10:00N 35°39' E 139°46'2 3.8
2018-Apr-20 09:30N 35°37' E 139°46'0 0.8
2018-Apr-20 09:00N 35°36' E 139°46'2 4.3
2018-Apr-20 08:30N 35°35' E 139°48'1 1.5
2018-Apr-20 07:59N 35°34' E 139°48'4 7.4
2018-Apr-20 07:30N 35°37' E 139°46'2 3.1
2018-Apr-20 07:00N 35°39' E 139°46'0 0.0
2018-Apr-20 06:28N 35°39' E 139°46'0 0.0
2018-Apr-20 05:59N 35°39' E 139°46'0 0.0
2018-Apr-20 05:29N 35°39' E 139°46'0 0.0
2018-Apr-20 04:57N 35°39' E 139°46'0 0.0
2018-Apr-20 04:28N 35°39' E 139°46'0 0.0
2018-Apr-20 03:58N 35°39' E 139°46'0 0.0
2018-Apr-20 03:30N 35°39' E 139°46'0 0.0
2018-Apr-20 03:00N 35°39' E 139°46'0 0.0
2018-Apr-20 02:23N 35°39' E 139°46'0 0.0
2018-Apr-20 01:59N 35°39' E 139°46'0 0.0
2018-Apr-20 01:29N 35°39' E 139°46'0 0.0
2018-Apr-20 01:00N 35°39' E 139°46'0 0.0
2018-Apr-20 00:29N 35°39' E 139°46'0 0.0
2018-Apr-20 00:00N 35°39' E 139°46'0 0.0
2018-Apr-19 23:30N 35°39' E 139°46'0 0.0
2018-Apr-19 23:00N 35°39' E 139°46'0 0.0
2018-Apr-19 22:30N 35°39' E 139°46'0 0.0
2018-Apr-19 22:00N 35°39' E 139°46'0 0.0
2018-Apr-19 21:30N 35°39' E 139°46'0 0.0
2018-Apr-19 21:00N 35°39' E 139°46'3 5.3
2018-Apr-19 20:30N 35°36' E 139°47'2 4.1
2018-Apr-19 19:59N 35°38' E 139°45'1 1.2
2018-Apr-19 19:29N 35°39' E 139°46'0 0.0
2018-Apr-19 18:59N 35°39' E 139°46'0 0.0
2018-Apr-19 18:30N 35°39' E 139°46'0 0.0
2018-Apr-19 17:59N 35°39' E 139°46'0 0.0
2018-Apr-19 17:24N 35°39' E 139°46'0 0.0
2018-Apr-19 16:49N 35°39' E 139°46'0 0.0
2018-Apr-19 16:08N 35°39' E 139°46'0 0.0
2018-Apr-19 15:57N 35°39' E 139°46'0 0.0
2018-Apr-19 15:18N 35°39' E 139°46'0 0.0
2018-Apr-19 14:59N 35°39' E 139°46'0 0.0
2018-Apr-19 14:29N 35°39' E 139°46'0 0.0
2018-Apr-19 14:00N 35°39' E 139°46'0 0.0
2018-Apr-19 13:30N 35°39' E 139°46'0 0.0
2018-Apr-19 13:00N 35°39' E 139°46'0 0.0
2018-Apr-19 12:30N 35°39' E 139°46'0 0.0
2018-Apr-19 12:00N 35°39' E 139°46'0 0.0
2018-Apr-19 11:30N 35°39' E 139°46'0 0.0
2018-Apr-19 11:00N 35°39' E 139°46'0 0.0
2018-Apr-19 10:29N 35°39' E 139°46'0 0.0
2018-Apr-19 09:58N 35°39' E 139°46'0 0.0
2018-Apr-19 09:30N 35°39' E 139°46'0 0.0
2018-Apr-19 09:00N 35°39' E 139°46'0 0.0
2018-Apr-19 08:30N 35°39' E 139°46'0 0.0
2018-Apr-19 07:58N 35°39' E 139°46'0 0.0
2018-Apr-19 07:30N 35°39' E 139°46'0 0.0
2018-Apr-19 06:58N 35°39' E 139°46'0 0.0
2018-Apr-19 06:30N 35°39' E 139°46'0 0.0
2018-Apr-19 05:59N 35°39' E 139°46'0 0.0
2018-Apr-19 05:29N 35°39' E 139°46'0 0.0
2018-Apr-19 05:00N 35°39' E 139°46'0 0.0
2018-Apr-19 04:25N 35°39' E 139°46'0 0.0
2018-Apr-19 03:03N 35°39' E 139°46'0 5.2
2018-Apr-19 03:00N 35°39' E 139°46'2 3.7
2018-Apr-19 02:30N 35°37' E 139°46'1 1.1
2018-Apr-19 02:00N 35°37' E 139°46'2 2.9
2018-Apr-19 01:27N 35°39' E 139°46'0 0.0
2018-Apr-19 00:52N 35°39' E 139°46'0 0.0
2018-Apr-19 00:25N 35°39' E 139°46'0 0.0
2018-Apr-18 23:57N 35°39' E 139°46'0 0.0
2018-Apr-18 23:25N 35°39' E 139°46'0 0.0
2018-Apr-18 22:58N 35°39' E 139°46'0 0.0
2018-Apr-18 22:21N 35°39' E 139°46'0 0.0
2018-Apr-18 21:19N 35°39' E 139°46'0 0.0
2018-Apr-18 20:52N 35°39' E 139°46'0 0.0
2018-Apr-18 20:30N 35°39' E 139°46'0 0.0
2018-Apr-18 19:38N 35°39' E 139°46'0 0.0
2018-Apr-18 19:23N 35°39' E 139°46'0 0.0
2018-Apr-18 19:00N 35°39' E 139°46'0 0.0
2018-Apr-18 18:30N 35°39' E 139°46'0 0.0
2018-Apr-18 18:00N 35°39' E 139°46'0 0.0
2018-Apr-18 17:30N 35°39' E 139°46'0 0.0
2018-Apr-18 16:58N 35°39' E 139°46'0 0.0
2018-Apr-18 16:30N 35°39' E 139°46'0 0.0
2018-Apr-18 15:58N 35°39' E 139°46'0 0.0
2018-Apr-18 15:30N 35°39' E 139°46'0 0.0
2018-Apr-18 15:00N 35°39' E 139°46'0 0.0
2018-Apr-18 14:30N 35°39' E 139°46'0 0.0
2018-Apr-18 13:59N 35°39' E 139°46'0 0.0
2018-Apr-18 13:30N 35°39' E 139°46'0 0.0
2018-Apr-18 12:44N 35°39' E 139°46'0 0.0
2018-Apr-18 12:31N 35°39' E 139°46'3 5.9
2018-Apr-18 12:00N 35°36' E 139°47'2 3.8
2018-Apr-18 11:30N 35°38' E 139°46'0 0.4
2018-Apr-18 11:00N 35°38' E 139°46'0 0.0
2018-Apr-18 10:28N 35°38' E 139°46'1 2.4
2018-Apr-18 09:59N 35°37' E 139°46'2 4.1
2018-Apr-18 09:30N 35°37' E 139°49'1 2.8
2018-Apr-18 08:59N 35°37' E 139°47'0 0.2
2018-Apr-18 08:26N 35°37' E 139°47'0 0.0
2018-Apr-18 07:40N 35°37' E 139°47'0 0.0
2018-Apr-18 07:30N 35°37' E 139°47'1 1.9
2018-Apr-18 07:00N 35°37' E 139°48'3 3.8
2018-Apr-18 06:18N 35°39' E 139°46'0 0.0
2018-Apr-18 06:00N 35°39' E 139°46'0 0.0
2018-Apr-18 05:29N 35°39' E 139°46'0 0.0
2018-Apr-18 05:00N 35°39' E 139°46'0 0.0
2018-Apr-18 04:30N 35°39' E 139°46'0 0.0
2018-Apr-18 03:58N 35°39' E 139°46'0 0.0
2018-Apr-18 03:30N 35°39' E 139°46'0 0.0
2018-Apr-18 03:00N 35°39' E 139°46'0 0.0
2018-Apr-18 02:29N 35°39' E 139°46'0 0.0
2018-Apr-18 01:58N 35°39' E 139°46'0 0.0
2018-Apr-18 01:30N 35°39' E 139°46'0 0.0
2018-Apr-18 00:59N 35°39' E 139°46'0 0.0
2018-Apr-18 00:30N 35°39' E 139°46'0 0.0
2018-Apr-18 00:00N 35°39' E 139°46'0 0.0
2018-Apr-17 23:30N 35°39' E 139°46'0 0.0
2018-Apr-17 23:00N 35°39' E 139°46'0 0.0
2018-Apr-17 22:30N 35°39' E 139°46'0 0.0
2018-Apr-17 22:00N 35°39' E 139°46'0 0.0
2018-Apr-17 21:30N 35°39' E 139°46'0 0.0
2018-Apr-17 21:00N 35°39' E 139°46'0 0.0
2018-Apr-17 20:30N 35°39' E 139°46'0 0.0
2018-Apr-17 19:59N 35°39' E 139°46'0 0.0
2018-Apr-17 19:11N 35°39' E 139°46'0 0.0
2018-Apr-17 18:59N 35°39' E 139°46'0 0.0
2018-Apr-17 18:30N 35°39' E 139°46'0 0.0
2018-Apr-17 17:59N 35°39' E 139°46'0 0.0
2018-Apr-17 17:30N 35°39' E 139°46'0 0.0
2018-Apr-17 17:00N 35°39' E 139°46'0 0.0
2018-Apr-17 16:25N 35°39' E 139°46'0 0.0
2018-Apr-17 16:00N 35°39' E 139°46'0 0.0
2018-Apr-17 15:29N 35°39' E 139°46'0 0.0
2018-Apr-17 15:00N 35°39' E 139°46'0 0.0
2018-Apr-17 14:29N 35°39' E 139°46'0 0.0
2018-Apr-17 13:57N 35°39' E 139°46'0 0.0
2018-Apr-17 13:29N 35°39' E 139°46'0 0.0
2018-Apr-17 13:00N 35°39' E 139°46'0 0.0
2018-Apr-17 12:15N 35°39' E 139°46'0 0.0
2018-Apr-17 11:54N 35°39' E 139°46'0 0.0
2018-Apr-17 11:29N 35°39' E 139°46'0 0.0
2018-Apr-17 11:00N 35°39' E 139°46'0 0.0
2018-Apr-17 10:24N 35°39' E 139°46'0 0.0
2018-Apr-17 09:58N 35°39' E 139°46'2 4.6
2018-Apr-17 09:30N 35°37' E 139°46'1 1.4
2018-Apr-17 09:00N 35°36' E 139°46'3 6.1
2018-Apr-17 08:30N 35°34' E 139°49'3 4.1
2018-Apr-17 07:53N 35°35' E 139°47'1 2.2
2018-Apr-17 07:30N 35°36' E 139°47'2 3.0
2018-Apr-17 07:00N 35°37' E 139°46'2 3.3
2018-Apr-17 06:26N 35°39' E 139°46'0 0.0
2018-Apr-17 05:53N 35°39' E 139°46'0 0.0
2018-Apr-17 05:30N 35°39' E 139°46'0 0.0
2018-Apr-17 04:59N 35°39' E 139°46'0 0.0
2018-Apr-17 04:28N 35°39' E 139°46'0 0.0
2018-Apr-17 04:00N 35°39' E 139°46'0 0.0
2018-Apr-17 03:29N 35°39' E 139°46'0 0.0
2018-Apr-17 02:58N 35°39' E 139°46'0 0.0
2018-Apr-17 02:28N 35°39' E 139°46'0 0.0
2018-Apr-17 02:00N 35°39' E 139°46'0 0.0
2018-Apr-17 01:28N 35°39' E 139°46'0 0.0
2018-Apr-17 01:00N 35°39' E 139°46'0 0.0
2018-Apr-17 00:30N 35°39' E 139°46'0 0.0
2018-Apr-16 23:56N 35°39' E 139°46'0 0.0
2018-Apr-16 23:21N 35°39' E 139°46'0 0.0
2018-Apr-16 23:00N 35°39' E 139°46'0 0.0
2018-Apr-16 22:29N 35°39' E 139°46'0 0.0
2018-Apr-16 22:00N 35°39' E 139°46'0 0.0
2018-Apr-16 21:30N 35°39' E 139°46'1 2.4
2018-Apr-16 21:00N 35°38' E 139°46'1 2.3
2018-Apr-16 20:30N 35°37' E 139°47'1 1.5
2018-Apr-16 20:00N 35°37' E 139°46'1 1.6
2018-Apr-16 19:30N 35°36' E 139°46'0 0.8
2018-Apr-16 19:01N 35°37' E 139°46'1 1.6
2018-Apr-16 18:30N 35°37' E 139°46'1 2.7
2018-Apr-16 18:00N 35°39' E 139°46'0 0.0
2018-Apr-16 16:37N 35°39' E 139°46'0 0.0
2018-Apr-16 16:21N 35°39' E 139°46'0 0.0
2018-Apr-16 16:00N 35°39' E 139°46'0 0.0
2018-Apr-16 15:27N 35°39' E 139°46'0 0.0
2018-Apr-16 15:00N 35°39' E 139°46'0 0.0
2018-Apr-16 14:30N 35°39' E 139°46'0 0.0
2018-Apr-16 14:00N 35°39' E 139°46'0 0.0
2018-Apr-16 13:30N 35°39' E 139°46'0 0.0
2018-Apr-16 13:00N 35°39' E 139°46'0 0.0
2018-Apr-16 11:50N 35°39' E 139°46'0 0.0
2018-Apr-16 11:30N 35°39' E 139°46'0 0.0
2018-Apr-16 11:00N 35°39' E 139°46'0 0.0
2018-Apr-16 10:30N 35°39' E 139°46'0 0.0
2018-Apr-16 09:53N 35°39' E 139°46'0 0.0
2018-Apr-16 09:27N 35°39' E 139°46'0 0.0
2018-Apr-16 08:58N 35°39' E 139°46'0 0.0
2018-Apr-16 08:30N 35°39' E 139°46'0 0.0
2018-Apr-16 07:59N 35°39' E 139°46'0 0.0
2018-Apr-16 07:29N 35°39' E 139°46'0 0.0
2018-Apr-16 06:59N 35°39' E 139°46'0 0.0
2018-Apr-16 06:30N 35°39' E 139°46'0 0.0
2018-Apr-16 05:56N 35°39' E 139°46'3 6.2
2018-Apr-16 05:30N 35°36' E 139°47'0 1.0
2018-Apr-16 05:00N 35°36' E 139°46'3 4.7
2018-Apr-16 04:28N 35°39' E 139°46'0 0.0
2018-Apr-16 04:00N 35°39' E 139°46'0 0.0
2018-Apr-16 03:24N 35°39' E 139°46'0 0.0
2018-Apr-16 03:00N 35°39' E 139°46'0 0.0
2018-Apr-16 02:30N 35°39' E 139°46'0 0.0
2018-Apr-16 01:57N 35°39' E 139°46'0 0.0
2018-Apr-16 01:30N 35°39' E 139°46'0 0.0
2018-Apr-16 01:00N 35°39' E 139°46'0 0.0
2018-Apr-16 00:30N 35°39' E 139°46'0 0.0
2018-Apr-15 23:56N 35°39' E 139°46'0 0.0
2018-Apr-15 23:30N 35°39' E 139°46'0 0.0
2018-Apr-15 23:00N 35°39' E 139°46'0 0.0
2018-Apr-15 22:27N 35°39' E 139°46'0 0.0
2018-Apr-15 21:59N 35°39' E 139°46'0 0.0
2018-Apr-15 21:26N 35°39' E 139°46'0 0.0
2018-Apr-15 21:00N 35°39' E 139°46'0 0.0
2018-Apr-15 20:29N 35°39' E 139°46'0 0.0
2018-Apr-15 20:00N 35°39' E 139°46'0 0.0
2018-Apr-15 19:28N 35°39' E 139°46'0 0.0
2018-Apr-15 19:00N 35°39' E 139°46'0 0.0
2018-Apr-15 18:29N 35°39' E 139°46'0 0.0
2018-Apr-15 17:56N 35°39' E 139°46'0 0.0
2018-Apr-15 17:29N 35°39' E 139°46'0 0.0
2018-Apr-15 16:56N 35°39' E 139°46'0 0.0
2018-Apr-15 16:26N 35°39' E 139°46'0 0.0
2018-Apr-15 15:53N 35°39' E 139°46'0 0.0
2018-Apr-15 15:30N 35°39' E 139°46'0 0.0
2018-Apr-15 14:59N 35°39' E 139°46'0 0.0
2018-Apr-15 14:28N 35°39' E 139°46'0 0.0
2018-Apr-15 13:59N 35°39' E 139°46'0 0.0
2018-Apr-15 13:30N 35°39' E 139°46'0 0.0
2018-Apr-15 12:54N 35°39' E 139°46'2 5.7
2018-Apr-15 12:30N 35°36' E 139°46'0 0.3
2018-Apr-15 12:00N 35°36' E 139°46'2 3.6
2018-Apr-15 11:31N 35°35' E 139°47'1 1.5
2018-Apr-15 11:00N 35°35' E 139°48'4 8.5
2018-Apr-15 10:30N 35°38' E 139°45'2 3.5
2018-Apr-15 09:59N 35°37' E 139°47'1 2.9
2018-Apr-15 09:30N 35°35' E 139°47'2 3.6
2018-Apr-15 09:00N 35°34' E 139°49'4 8.4
2018-Apr-15 08:30N 35°37' E 139°46'1 2.5
2018-Apr-15 07:58N 35°39' E 139°46'0 0.0
2018-Apr-15 07:27N 35°39' E 139°46'0 0.0
2018-Apr-15 07:00N 35°39' E 139°46'0 0.0
2018-Apr-15 06:30N 35°39' E 139°46'0 0.0
2018-Apr-15 05:51N 35°39' E 139°46'0 0.0
2018-Apr-15 05:25N 35°39' E 139°46'3 7.5
2018-Apr-15 05:01N 35°36' E 139°47'1 2.3
2018-Apr-15 04:30N 35°37' E 139°46'2 3.1
2018-Apr-15 03:52N 35°39' E 139°46'0 0.0
2018-Apr-15 03:24N 35°39' E 139°46'0 0.1
2018-Apr-15 02:58N 35°39' E 139°46'0 0.1
2018-Apr-15 02:29N 35°39' E 139°46'0 0.0
2018-Apr-15 02:00N 35°39' E 139°46'0 0.0
2018-Apr-15 01:26N 35°39' E 139°46'0 0.0
2018-Apr-15 01:00N 35°39' E 139°46'0 0.0
2018-Apr-15 00:27N 35°39' E 139°46'0 0.0
2018-Apr-14 23:58N 35°39' E 139°46'0 0.0
2018-Apr-14 23:27N 35°39' E 139°46'0 0.0
2018-Apr-14 22:58N 35°39' E 139°46'1 2.6
2018-Apr-14 22:30N 35°38' E 139°46'5 8.9
2018-Apr-14 21:58N 35°36' E 139°51'4 7.6
2018-Apr-14 21:30N 35°33' E 139°54'1 1.9
2018-Apr-14 21:00N 35°34' E 139°53'5 9.1
2018-Apr-14 20:31N 35°35' E 139°48'4 7.6
2018-Apr-14 20:00N 35°38' E 139°45'1 1.4
2018-Apr-14 19:28N 35°39' E 139°46'0 0.0
2018-Apr-14 19:00N 35°39' E 139°46'0 0.0
2018-Apr-14 17:41N 35°39' E 139°46'0 0.3
2018-Apr-14 17:29N 35°39' E 139°46'0 0.0
2018-Apr-14 16:59N 35°39' E 139°46'0 0.0
2018-Apr-14 16:30N 35°39' E 139°46'0 0.0
2018-Apr-14 15:59N 35°39' E 139°46'0 0.0
2018-Apr-14 15:29N 35°39' E 139°46'0 0.0
2018-Apr-14 15:00N 35°39' E 139°46'0 0.0
2018-Apr-14 14:30N 35°39' E 139°46'0 0.0
2018-Apr-14 13:56N 35°39' E 139°46'0 0.0
2018-Apr-14 13:30N 35°39' E 139°46'0 0.0
2018-Apr-14 13:00N 35°39' E 139°46'0 0.0
2018-Apr-14 12:30N 35°39' E 139°46'0 0.0
2018-Apr-14 11:58N 35°39' E 139°46'0 0.0
2018-Apr-14 11:29N 35°39' E 139°46'0 0.0
2018-Apr-14 11:00N 35°39' E 139°46'0 0.0
2018-Apr-14 10:30N 35°39' E 139°46'0 0.0
2018-Apr-14 10:00N 35°39' E 139°46'0 0.0
2018-Apr-14 09:29N 35°39' E 139°46'0 0.0
2018-Apr-14 09:00N 35°39' E 139°46'0 0.0
2018-Apr-14 08:29N 35°39' E 139°46'0 0.0
2018-Apr-14 07:59N 35°39' E 139°46'0 0.0
2018-Apr-14 07:22N 35°39' E 139°46'0 0.0
2018-Apr-14 07:00N 35°39' E 139°46'0 0.0
2018-Apr-14 06:28N 35°39' E 139°46'0 0.0
2018-Apr-14 05:53N 35°39' E 139°46'3 8.2
2018-Apr-14 05:31N 35°36' E 139°47'1 2.0
2018-Apr-14 05:00N 35°37' E 139°47'0 0.0
2018-Apr-14 04:29N 35°37' E 139°47'1 1.8
2018-Apr-14 04:00N 35°36' E 139°48'1 1.5
2018-Apr-14 03:30N 35°36' E 139°47'1 2.0
2018-Apr-14 03:01N 35°35' E 139°47'1 1.1
2018-Apr-14 02:30N 35°35' E 139°47'0 0.4
2018-Apr-14 01:38N 35°36' E 139°46'0 0.0
2018-Apr-14 01:29N 35°36' E 139°46'1 1.7
2018-Apr-14 01:00N 35°36' E 139°47'2 4.6
2018-Apr-14 00:30N 35°38' E 139°46'1 2.1
2018-Apr-14 00:00N 35°39' E 139°46'0 0.0
2018-Apr-13 23:30N 35°39' E 139°46'0 0.0
2018-Apr-13 22:59N 35°39' E 139°46'0 0.0
2018-Apr-13 22:30N 35°39' E 139°46'0 0.0
2018-Apr-13 22:00N 35°39' E 139°46'0 0.0
2018-Apr-13 21:27N 35°39' E 139°46'0 0.1
2018-Apr-13 20:51N 35°39' E 139°46'0 0.1
2018-Apr-13 20:22N 35°39' E 139°46'0 0.0
2018-Apr-13 19:38N 35°39' E 139°46'0 0.0
2018-Apr-13 19:14N 35°39' E 139°46'0 0.0
2018-Apr-13 18:51N 35°39' E 139°46'0 0.0
2018-Apr-13 18:27N 35°39' E 139°46'0 0.0
2018-Apr-13 17:11N 35°39' E 139°46'0 0.0
2018-Apr-13 16:52N 35°39' E 139°46'0 0.0
2018-Apr-13 16:19N 35°39' E 139°46'0 0.0
2018-Apr-13 15:53N 35°39' E 139°46'0 0.0
2018-Apr-13 15:29N 35°39' E 139°46'0 0.0
2018-Apr-13 15:00N 35°39' E 139°46'0 0.0
2018-Apr-13 14:29N 35°39' E 139°46'0 0.0
2018-Apr-13 14:00N 35°39' E 139°46'0 0.0
2018-Apr-13 13:29N 35°39' E 139°46'0 0.0
2018-Apr-13 13:00N 35°39' E 139°46'0 0.0
2018-Apr-13 12:30N 35°39' E 139°46'0 0.0
2018-Apr-13 12:00N 35°39' E 139°46'0 0.0
2018-Apr-13 11:30N 35°39' E 139°46'0 0.0
2018-Apr-13 11:00N 35°39' E 139°46'0 0.0
2018-Apr-13 10:21N 35°39' E 139°46'0 0.0
2018-Apr-13 09:59N 35°39' E 139°46'0 0.0
2018-Apr-13 09:30N 35°39' E 139°46'0 0.0
2018-Apr-13 08:41N 35°39' E 139°46'0 0.0
2018-Apr-13 08:23N 35°39' E 139°46'0 0.0
2018-Apr-13 07:36N 35°39' E 139°46'0 0.0
2018-Apr-13 07:23N 35°39' E 139°46'0 0.0
2018-Apr-13 06:50N 35°39' E 139°46'0 0.0
2018-Apr-13 06:28N 35°39' E 139°46'0 0.0
2018-Apr-13 05:53N 35°39' E 139°46'0 0.0
2018-Apr-13 05:23N 35°39' E 139°46'1 3.4
2018-Apr-13 05:00N 35°37' E 139°46'  
Track history (hours):
 
Tides and Currents Weather Stations Pressure Air Temp Water Temp Dewpoint Dewpoint Depression Visibility Wind Speed Wind Dir Waves Ship Positions

Hinode Maru

Last reported at 2018-Apr-23 05:00 UTC. Time now 2018-Apr-23 05:21 UTC.
Position N 35°39' E 139°46'.

Length 33 m; draft 3.8 m.

Type: Tug. MMSI: 431005882.

Date/timePositionNaut miles runAvg speedWind from/ knotsBaromVisibWave heightAir tempDewpointWater temp
2018-Apr-23 05:00N 35°39' E 139°46'0 0.0
2018-Apr-23 04:30N 35°39' E 139°46'0 0.0
2018-Apr-23 03:12N 35°39' E 139°46'0 0.0
2018-Apr-23 02:55N 35°39' E 139°46'0 0.0
2018-Apr-23 02:29N 35°39' E 139°46'0 0.0
2018-Apr-23 01:59N 35°39' E 139°46'0 0.0
2018-Apr-23 01:29N 35°39' E 139°46'0 0.0
2018-Apr-23 00:59N 35°39' E 139°46'0 0.0
2018-Apr-23 00:28N 35°39' E 139°46'0 0.0
2018-Apr-22 23:59N 35°39' E 139°46'0 0.0
2018-Apr-22 23:30N 35°39' E 139°46'0 0.0
2018-Apr-22 22:57N 35°39' E 139°46'0 0.0
2018-Apr-22 22:30N 35°39' E 139°46'0 0.0
2018-Apr-22 21:59N 35°39' E 139°46'0 0.0
2018-Apr-22 21:30N 35°39' E 139°46'0 0.0
2018-Apr-22 20:56N 35°39' E 139°46'0 0.0
2018-Apr-22 20:30N 35°39' E 139°46'0 0.0
2018-Apr-22 19:58N 35°39' E 139°46'0 0.0
2018-Apr-22 19:28N 35°39' E 139°46'0 0.0
2018-Apr-22 18:59N 35°39' E 139°46'0 0.0
2018-Apr-22 18:29N 35°39' E 139°46'0 0.0
2018-Apr-22 17:22N 35°39' E 139°46'0 0.0
2018-Apr-22 16:58N 35°39' E 139°46'0 0.0
2018-Apr-22 16:30N 35°39' E 139°46'0 0.0
2018-Apr-22 16:00N 35°39' E 139°46'0 0.0
2018-Apr-22 15:29N 35°39' E 139°46'0 0.0
2018-Apr-22 15:00N 35°39' E 139°46'0 0.0
2018-Apr-22 14:30N 35°39' E 139°46'0 0.0
2018-Apr-22 14:00N 35°39' E 139°46'0 0.0
2018-Apr-22 13:28N 35°39' E 139°46'0 0.0
2018-Apr-22 13:00N 35°39' E 139°46'0 0.0
2018-Apr-22 12:30N 35°39' E 139°46'0 0.0
2018-Apr-22 12:00N 35°39' E 139°46'0 0.0
2018-Apr-22 11:30N 35°39' E 139°46'0 0.0
2018-Apr-22 10:59N 35°39' E 139°46'0 0.0
2018-Apr-22 10:30N 35°39' E 139°46'2 4.9
2018-Apr-22 10:00N 35°36' E 139°46'0 0.4
2018-Apr-22 09:30N 35°36' E 139°46'3 6.6
2018-Apr-22 09:00N 35°34' E 139°49'0 0.8
2018-Apr-22 08:30N 35°34' E 139°49'3 5.4
2018-Apr-22 08:00N 35°36' E 139°47'0 0.3
2018-Apr-22 07:30N 35°36' E 139°47'1 2.4
2018-Apr-22 07:00N 35°37' E 139°46'2 3.3
2018-Apr-22 06:29N 35°39' E 139°46'0 0.0
2018-Apr-22 05:55N 35°39' E 139°46'0 0.0
2018-Apr-22 05:30N 35°39' E 139°46'0 0.0
2018-Apr-22 05:00N 35°39' E 139°46'0 0.0
2018-Apr-22 04:30N 35°39' E 139°46'0 0.0
2018-Apr-22 04:00N 35°39' E 139°46'0 0.0
2018-Apr-22 03:29N 35°39' E 139°46'0 0.0
2018-Apr-22 03:00N 35°39' E 139°46'0 0.0
2018-Apr-22 02:30N 35°39' E 139°46'0 0.0
2018-Apr-22 01:57N 35°39' E 139°46'0 0.0
2018-Apr-22 01:30N 35°39' E 139°46'0 0.0
2018-Apr-22 00:58N 35°39' E 139°46'0 0.0
2018-Apr-22 00:30N 35°39' E 139°46'0 0.0
2018-Apr-21 23:59N 35°39' E 139°46'0 0.0
2018-Apr-21 23:30N 35°39' E 139°46'0 0.0
2018-Apr-21 23:00N 35°39' E 139°46'0 0.0
2018-Apr-21 22:30N 35°39' E 139°46'0 0.0
2018-Apr-21 21:59N 35°39' E 139°46'0 0.0
2018-Apr-21 21:30N 35°39' E 139°46'0 0.0
2018-Apr-21 20:56N 35°39' E 139°46'0 0.0
2018-Apr-21 20:30N 35°39' E 139°46'0 0.0
2018-Apr-21 19:56N 35°39' E 139°46'0 0.0
2018-Apr-21 19:25N 35°39' E 139°46'0 0.0
2018-Apr-21 19:00N 35°39' E 139°46'0 0.0
2018-Apr-21 18:29N 35°39' E 139°46'0 0.0
2018-Apr-21 18:00N 35°39' E 139°46'0 0.0
2018-Apr-21 17:29N 35°39' E 139°46'0 0.0
2018-Apr-21 16:59N 35°39' E 139°46'0 0.0
2018-Apr-21 16:26N 35°39' E 139°46'0 0.0
2018-Apr-21 15:53N 35°39' E 139°46'0 0.0
2018-Apr-21 15:30N 35°39' E 139°46'0 0.0
2018-Apr-21 14:58N 35°39' E 139°46'0 0.0
2018-Apr-21 14:24N 35°39' E 139°46'0 0.0
2018-Apr-21 14:00N 35°39' E 139°46'0 0.0
2018-Apr-21 13:25N 35°39' E 139°46'0 0.0
2018-Apr-21 12:53N 35°39' E 139°46'0 0.0
2018-Apr-21 12:27N 35°39' E 139°46'0 0.0
2018-Apr-21 11:58N 35°39' E 139°46'2 5.4
2018-Apr-21 11:30N 35°36' E 139°46'0 0.3
2018-Apr-21 11:00N 35°36' E 139°46'2 4.5
2018-Apr-21 10:30N 35°35' E 139°48'3 6.3
2018-Apr-21 10:00N 35°37' E 139°46'2 2.9
2018-Apr-21 09:27N 35°36' E 139°46'0 0.7
2018-Apr-21 08:58N 35°36' E 139°47'2 5.4
2018-Apr-21 08:30N 35°34' E 139°49'3 6.8
2018-Apr-21 08:00N 35°37' E 139°46'0 0.4
2018-Apr-21 07:31N 35°37' E 139°47'0 0.7
2018-Apr-21 07:00N 35°37' E 139°46'2 4.2
2018-Apr-21 06:30N 35°39' E 139°46'0 0.0
2018-Apr-21 05:59N 35°39' E 139°46'0 0.0
2018-Apr-21 05:28N 35°39' E 139°46'0 0.0
2018-Apr-21 05:00N 35°39' E 139°46'0 0.0
2018-Apr-21 04:27N 35°39' E 139°46'0 0.0
2018-Apr-21 03:54N 35°39' E 139°46'0 0.0
2018-Apr-21 03:29N 35°39' E 139°46'0 0.0
2018-Apr-21 02:54N 35°39' E 139°46'0 0.0
2018-Apr-21 02:27N 35°39' E 139°46'0 0.0
2018-Apr-21 02:00N 35°39' E 139°46'0 0.0
2018-Apr-21 01:30N 35°39' E 139°46'0 0.0
2018-Apr-21 00:58N 35°39' E 139°46'0 0.0
2018-Apr-21 00:30N 35°39' E 139°46'0 0.0
2018-Apr-21 00:00N 35°39' E 139°46'0 0.0
2018-Apr-20 23:29N 35°39' E 139°46'0 0.0
2018-Apr-20 22:57N 35°39' E 139°46'0 0.0
2018-Apr-20 22:28N 35°39' E 139°46'0 0.0
2018-Apr-20 22:00N 35°39' E 139°46'0 0.0
2018-Apr-20 21:30N 35°39' E 139°46'0 0.0
2018-Apr-20 21:00N 35°39' E 139°46'0 0.0
2018-Apr-20 20:30N 35°39' E 139°46'0 0.0
2018-Apr-20 20:00N 35°39' E 139°46'0 0.0
2018-Apr-20 19:30N 35°39' E 139°46'0 0.0
2018-Apr-20 19:00N 35°39' E 139°46'0 0.0
2018-Apr-20 18:28N 35°39' E 139°46'0 0.0
2018-Apr-20 18:00N 35°39' E 139°46'0 0.0
2018-Apr-20 17:29N 35°39' E 139°46'0 0.0
2018-Apr-20 17:00N 35°39' E 139°46'0 0.0
2018-Apr-20 16:11N 35°39' E 139°46'0 0.0
2018-Apr-20 15:59N 35°39' E 139°46'0 0.0
2018-Apr-20 15:29N 35°39' E 139°46'0 0.0
2018-Apr-20 15:00N 35°39' E 139°46'0 0.0
2018-Apr-20 14:30N 35°39' E 139°46'0 0.0
2018-Apr-20 13:59N 35°39' E 139°46'0 0.0
2018-Apr-20 13:30N 35°39' E 139°46'0 0.0
2018-Apr-20 13:00N 35°39' E 139°46'0 0.0
2018-Apr-20 12:30N 35°39' E 139°46'0 0.0
2018-Apr-20 12:00N 35°39' E 139°46'0 0.0
2018-Apr-20 11:30N 35°39' E 139°46'0 0.0
2018-Apr-20 10:58N 35°39' E 139°46'0 0.0
2018-Apr-20 10:30N 35°39' E 139°46'0 0.0
2018-Apr-20 10:00N 35°39' E 139°46'2 3.8
2018-Apr-20 09:30N 35°37' E 139°46'0 0.8
2018-Apr-20 09:00N 35°36' E 139°46'2 4.3
2018-Apr-20 08:30N 35°35' E 139°48'1 1.5
2018-Apr-20 07:59N 35°34' E 139°48'4 7.4
2018-Apr-20 07:30N 35°37' E 139°46'2 3.1
2018-Apr-20 07:00N 35°39' E 139°46'0 0.0
2018-Apr-20 06:28N 35°39' E 139°46'0 0.0
2018-Apr-20 05:59N 35°39' E 139°46'0 0.0
2018-Apr-20 05:29N 35°39' E 139°46'0 0.0
2018-Apr-20 04:57N 35°39' E 139°46'0 0.0
2018-Apr-20 04:28N 35°39' E 139°46'0 0.0
2018-Apr-20 03:58N 35°39' E 139°46'0 0.0
2018-Apr-20 03:30N 35°39' E 139°46'0 0.0
2018-Apr-20 03:00N 35°39' E 139°46'0 0.0
2018-Apr-20 02:23N 35°39' E 139°46'0 0.0
2018-Apr-20 01:59N 35°39' E 139°46'0 0.0
2018-Apr-20 01:29N 35°39' E 139°46'0 0.0
2018-Apr-20 01:00N 35°39' E 139°46'0 0.0
2018-Apr-20 00:29N 35°39' E 139°46'0 0.0
2018-Apr-20 00:00N 35°39' E 139°46'0 0.0
2018-Apr-19 23:30N 35°39' E 139°46'0 0.0
2018-Apr-19 23:00N 35°39' E 139°46'0 0.0
2018-Apr-19 22:30N 35°39' E 139°46'0 0.0
2018-Apr-19 22:00N 35°39' E 139°46'0 0.0
2018-Apr-19 21:30N 35°39' E 139°46'0 0.0
2018-Apr-19 21:00N 35°39' E 139°46'3 5.3
2018-Apr-19 20:30N 35°36' E 139°47'2 4.1
2018-Apr-19 19:59N 35°38' E 139°45'1 1.2
2018-Apr-19 19:29N 35°39' E 139°46'0 0.0
2018-Apr-19 18:59N 35°39' E 139°46'0 0.0
2018-Apr-19 18:30N 35°39' E 139°46'0 0.0
2018-Apr-19 17:59N 35°39' E 139°46'0 0.0
2018-Apr-19 17:24N 35°39' E 139°46'0 0.0
2018-Apr-19 16:49N 35°39' E 139°46'0 0.0
2018-Apr-19 16:08N 35°39' E 139°46'0 0.0
2018-Apr-19 15:57N 35°39' E 139°46'0 0.0
2018-Apr-19 15:18N 35°39' E 139°46'0 0.0
2018-Apr-19 14:59N 35°39' E 139°46'0 0.0
2018-Apr-19 14:29N 35°39' E 139°46'0 0.0
2018-Apr-19 14:00N 35°39' E 139°46'0 0.0
2018-Apr-19 13:30N 35°39' E 139°46'0 0.0
2018-Apr-19 13:00N 35°39' E 139°46'0 0.0
2018-Apr-19 12:30N 35°39' E 139°46'0 0.0
2018-Apr-19 12:00N 35°39' E 139°46'0 0.0
2018-Apr-19 11:30N 35°39' E 139°46'0 0.0
2018-Apr-19 11:00N 35°39' E 139°46'0 0.0
2018-Apr-19 10:29N 35°39' E 139°46'0 0.0
2018-Apr-19 09:58N 35°39' E 139°46'0 0.0
2018-Apr-19 09:30N 35°39' E 139°46'0 0.0
2018-Apr-19 09:00N 35°39' E 139°46'0 0.0
2018-Apr-19 08:30N 35°39' E 139°46'0 0.0
2018-Apr-19 07:58N 35°39' E 139°46'0 0.0
2018-Apr-19 07:30N 35°39' E 139°46'0 0.0
2018-Apr-19 06:58N 35°39' E 139°46'0 0.0
2018-Apr-19 06:30N 35°39' E 139°46'0 0.0
2018-Apr-19 05:59N 35°39' E 139°46'0 0.0
2018-Apr-19 05:29N 35°39' E 139°46'0 0.0
2018-Apr-19 05:00N 35°39' E 139°46'0 0.0
2018-Apr-19 04:25N 35°39' E 139°46'0 0.0
2018-Apr-19 03:03N 35°39' E 139°46'0 5.2
2018-Apr-19 03:00N 35°39' E 139°46'2 3.7
2018-Apr-19 02:30N 35°37' E 139°46'1 1.1
2018-Apr-19 02:00N 35°37' E 139°46'2 2.9
2018-Apr-19 01:27N 35°39' E 139°46'0 0.0
2018-Apr-19 00:52N 35°39' E 139°46'0 0.0
2018-Apr-19 00:25N 35°39' E 139°46'0 0.0
2018-Apr-18 23:57N 35°39' E 139°46'0 0.0
2018-Apr-18 23:25N 35°39' E 139°46'0 0.0
2018-Apr-18 22:58N 35°39' E 139°46'0 0.0
2018-Apr-18 22:21N 35°39' E 139°46'0 0.0
2018-Apr-18 21:19N 35°39' E 139°46'0 0.0
2018-Apr-18 20:52N 35°39' E 139°46'0 0.0
2018-Apr-18 20:30N 35°39' E 139°46'0 0.0
2018-Apr-18 19:38N 35°39' E 139°46'0 0.0
2018-Apr-18 19:23N 35°39' E 139°46'0 0.0
2018-Apr-18 19:00N 35°39' E 139°46'0 0.0
2018-Apr-18 18:30N 35°39' E 139°46'0 0.0
2018-Apr-18 18:00N 35°39' E 139°46'0 0.0
2018-Apr-18 17:30N 35°39' E 139°46'0 0.0
2018-Apr-18 16:58N 35°39' E 139°46'0 0.0
2018-Apr-18 16:30N 35°39' E 139°46'0 0.0
2018-Apr-18 15:58N 35°39' E 139°46'0 0.0
2018-Apr-18 15:30N 35°39' E 139°46'0 0.0
2018-Apr-18 15:00N 35°39' E 139°46'0 0.0
2018-Apr-18 14:30N 35°39' E 139°46'0 0.0
2018-Apr-18 13:59N 35°39' E 139°46'0 0.0
2018-Apr-18 13:30N 35°39' E 139°46'0 0.0
2018-Apr-18 12:44N 35°39' E 139°46'0 0.0
2018-Apr-18 12:31N 35°39' E 139°46'3 5.9
2018-Apr-18 12:00N 35°36' E 139°47'2 3.8
2018-Apr-18 11:30N 35°38' E 139°46'0 0.4
2018-Apr-18 11:00N 35°38' E 139°46'0 0.0
2018-Apr-18 10:28N 35°38' E 139°46'1 2.4
2018-Apr-18 09:59N 35°37' E 139°46'2 4.1
2018-Apr-18 09:30N 35°37' E 139°49'1 2.8
2018-Apr-18 08:59N 35°37' E 139°47'0 0.2
2018-Apr-18 08:26N 35°37' E 139°47'0 0.0
2018-Apr-18 07:40N 35°37' E 139°47'0 0.0
2018-Apr-18 07:30N 35°37' E 139°47'1 1.9
2018-Apr-18 07:00N 35°37' E 139°48'3 3.8
2018-Apr-18 06:18N 35°39' E 139°46'0 0.0
2018-Apr-18 06:00N 35°39' E 139°46'0 0.0
2018-Apr-18 05:29N 35°39' E 139°46'0 0.0
2018-Apr-18 05:00N 35°39' E 139°46'0 0.0
2018-Apr-18 04:30N 35°39' E 139°46'0 0.0
2018-Apr-18 03:58N 35°39' E 139°46'0 0.0
2018-Apr-18 03:30N 35°39' E 139°46'0 0.0
2018-Apr-18 03:00N 35°39' E 139°46'0 0.0
2018-Apr-18 02:29N 35°39' E 139°46'0 0.0
2018-Apr-18 01:58N 35°39' E 139°46'0 0.0
2018-Apr-18 01:30N 35°39' E 139°46'0 0.0
2018-Apr-18 00:59N 35°39' E 139°46'0 0.0
2018-Apr-18 00:30N 35°39' E 139°46'0 0.0
2018-Apr-18 00:00N 35°39' E 139°46'0 0.0
2018-Apr-17 23:30N 35°39' E 139°46'0 0.0
2018-Apr-17 23:00N 35°39' E 139°46'0 0.0
2018-Apr-17 22:30N 35°39' E 139°46'0 0.0
2018-Apr-17 22:00N 35°39' E 139°46'0 0.0
2018-Apr-17 21:30N 35°39' E 139°46'0 0.0
2018-Apr-17 21:00N 35°39' E 139°46'0 0.0
2018-Apr-17 20:30N 35°39' E 139°46'0 0.0
2018-Apr-17 19:59N 35°39' E 139°46'0 0.0
2018-Apr-17 19:11N 35°39' E 139°46'0 0.0
2018-Apr-17 18:59N 35°39' E 139°46'0 0.0
2018-Apr-17 18:30N 35°39' E 139°46'0 0.0
2018-Apr-17 17:59N 35°39' E 139°46'0 0.0
2018-Apr-17 17:30N 35°39' E 139°46'0 0.0
2018-Apr-17 17:00N 35°39' E 139°46'0 0.0
2018-Apr-17 16:25N 35°39' E 139°46'0 0.0
2018-Apr-17 16:00N 35°39' E 139°46'0 0.0
2018-Apr-17 15:29N 35°39' E 139°46'0 0.0
2018-Apr-17 15:00N 35°39' E 139°46'0 0.0
2018-Apr-17 14:29N 35°39' E 139°46'0 0.0
2018-Apr-17 13:57N 35°39' E 139°46'0 0.0
2018-Apr-17 13:29N 35°39' E 139°46'0 0.0
2018-Apr-17 13:00N 35°39' E 139°46'0 0.0
2018-Apr-17 12:15N 35°39' E 139°46'0 0.0
2018-Apr-17 11:54N 35°39' E 139°46'0 0.0
2018-Apr-17 11:29N 35°39' E 139°46'0 0.0
2018-Apr-17 11:00N 35°39' E 139°46'0 0.0
2018-Apr-17 10:24N 35°39' E 139°46'0 0.0
2018-Apr-17 09:58N 35°39' E 139°46'2 4.6
2018-Apr-17 09:30N 35°37' E 139°46'1 1.4
2018-Apr-17 09:00N 35°36' E 139°46'3 6.1
2018-Apr-17 08:30N 35°34' E 139°49'3 4.1
2018-Apr-17 07:53N 35°35' E 139°47'1 2.2
2018-Apr-17 07:30N 35°36' E 139°47'2 3.0
2018-Apr-17 07:00N 35°37' E 139°46'2 3.3
2018-Apr-17 06:26N 35°39' E 139°46'0 0.0
2018-Apr-17 05:53N 35°39' E 139°46'0 0.0
2018-Apr-17 05:30N 35°39' E 139°46'0 0.0
2018-Apr-17 04:59N 35°39' E 139°46'0 0.0
2018-Apr-17 04:28N 35°39' E 139°46'0 0.0
2018-Apr-17 04:00N 35°39' E 139°46'0 0.0
2018-Apr-17 03:29N 35°39' E 139°46'0 0.0
2018-Apr-17 02:58N 35°39' E 139°46'0 0.0
2018-Apr-17 02:28N 35°39' E 139°46'0 0.0
2018-Apr-17 02:00N 35°39' E 139°46'0 0.0
2018-Apr-17 01:28N 35°39' E 139°46'0 0.0
2018-Apr-17 01:00N 35°39' E 139°46'0 0.0
2018-Apr-17 00:30N 35°39' E 139°46'0 0.0
2018-Apr-16 23:56N 35°39' E 139°46'0 0.0
2018-Apr-16 23:21N 35°39' E 139°46'0 0.0
2018-Apr-16 23:00N 35°39' E 139°46'0 0.0
2018-Apr-16 22:29N 35°39' E 139°46'0 0.0
2018-Apr-16 22:00N 35°39' E 139°46'0 0.0
2018-Apr-16 21:30N 35°39' E 139°46'1 2.4
2018-Apr-16 21:00N 35°38' E 139°46'1 2.3
2018-Apr-16 20:30N 35°37' E 139°47'1 1.5
2018-Apr-16 20:00N 35°37' E 139°46'1 1.6
2018-Apr-16 19:30N 35°36' E 139°46'0 0.8
2018-Apr-16 19:01N 35°37' E 139°46'1 1.6
2018-Apr-16 18:30N 35°37' E 139°46'1 2.7
2018-Apr-16 18:00N 35°39' E 139°46'0 0.0
2018-Apr-16 16:37N 35°39' E 139°46'0 0.0
2018-Apr-16 16:21N 35°39' E 139°46'0 0.0
2018-Apr-16 16:00N 35°39' E 139°46'0 0.0
2018-Apr-16 15:27N 35°39' E 139°46'0 0.0
2018-Apr-16 15:00N 35°39' E 139°46'0 0.0
2018-Apr-16 14:30N 35°39' E 139°46'0 0.0
2018-Apr-16 14:00N 35°39' E 139°46'0 0.0
2018-Apr-16 13:30N 35°39' E 139°46'0 0.0
2018-Apr-16 13:00N 35°39' E 139°46'0 0.0
2018-Apr-16 11:50N 35°39' E 139°46'0 0.0
2018-Apr-16 11:30N 35°39' E 139°46'0 0.0
2018-Apr-16 11:00N 35°39' E 139°46'0 0.0
2018-Apr-16 10:30N 35°39' E 139°46'0 0.0
2018-Apr-16 09:53N 35°39' E 139°46'0 0.0
2018-Apr-16 09:27N 35°39' E 139°46'0 0.0
2018-Apr-16 08:58N 35°39' E 139°46'0 0.0
2018-Apr-16 08:30N 35°39' E 139°46'0 0.0
2018-Apr-16 07:59N 35°39' E 139°46'0 0.0
2018-Apr-16 07:29N 35°39' E 139°46'0 0.0
2018-Apr-16 06:59N 35°39' E 139°46'0 0.0
2018-Apr-16 06:30N 35°39' E 139°46'0 0.0
2018-Apr-16 05:56N 35°39' E 139°46'3 6.2
2018-Apr-16 05:30N 35°36' E 139°47'0 1.0
2018-Apr-16 05:00N 35°36' E 139°46'3 4.7
2018-Apr-16 04:28N 35°39' E 139°46'0 0.0
2018-Apr-16 04:00N 35°39' E 139°46'0 0.0
2018-Apr-16 03:24N 35°39' E 139°46'0 0.0
2018-Apr-16 03:00N 35°39' E 139°46'0 0.0
2018-Apr-16 02:30N 35°39' E 139°46'0 0.0
2018-Apr-16 01:57N 35°39' E 139°46'0 0.0
2018-Apr-16 01:30N 35°39' E 139°46'0 0.0
2018-Apr-16 01:00N 35°39' E 139°46'0 0.0
2018-Apr-16 00:30N 35°39' E 139°46'0 0.0
2018-Apr-15 23:56N 35°39' E 139°46'0 0.0
2018-Apr-15 23:30N 35°39' E 139°46'0 0.0
2018-Apr-15 23:00N 35°39' E 139°46'0 0.0
2018-Apr-15 22:27N 35°39' E 139°46'0 0.0
2018-Apr-15 21:59N 35°39' E 139°46'0 0.0
2018-Apr-15 21:26N 35°39' E 139°46'0 0.0
2018-Apr-15 21:00N 35°39' E 139°46'0 0.0
2018-Apr-15 20:29N 35°39' E 139°46'0 0.0
2018-Apr-15 20:00N 35°39' E 139°46'0 0.0
2018-Apr-15 19:28N 35°39' E 139°46'0 0.0
2018-Apr-15 19:00N 35°39' E 139°46'0 0.0
2018-Apr-15 18:29N 35°39' E 139°46'0 0.0
2018-Apr-15 17:56N 35°39' E 139°46'0 0.0
2018-Apr-15 17:29N 35°39' E 139°46'0 0.0
2018-Apr-15 16:56N 35°39' E 139°46'0 0.0
2018-Apr-15 16:26N 35°39' E 139°46'0 0.0
2018-Apr-15 15:53N 35°39' E 139°46'0 0.0
2018-Apr-15 15:30N 35°39' E 139°46'0 0.0
2018-Apr-15 14:59N 35°39' E 139°46'0 0.0
2018-Apr-15 14:28N 35°39' E 139°46'0 0.0
2018-Apr-15 13:59N 35°39' E 139°46'0 0.0
2018-Apr-15 13:30N 35°39' E 139°46'0 0.0
2018-Apr-15 12:54N 35°39' E 139°46'2 5.7
2018-Apr-15 12:30N 35°36' E 139°46'0 0.3
2018-Apr-15 12:00N 35°36' E 139°46'2 3.6
2018-Apr-15 11:31N 35°35' E 139°47'1 1.5
2018-Apr-15 11:00N 35°35' E 139°48'4 8.5
2018-Apr-15 10:30N 35°38' E 139°45'2 3.5
2018-Apr-15 09:59N 35°37' E 139°47'1 2.9
2018-Apr-15 09:30N 35°35' E 139°47'2 3.6
2018-Apr-15 09:00N 35°34' E 139°49'4 8.4
2018-Apr-15 08:30N 35°37' E 139°46'1 2.5
2018-Apr-15 07:58N 35°39' E 139°46'0 0.0
2018-Apr-15 07:27N 35°39' E 139°46'0 0.0
2018-Apr-15 07:00N 35°39' E 139°46'0 0.0
2018-Apr-15 06:30N 35°39' E 139°46'0 0.0
2018-Apr-15 05:51N 35°39' E 139°46'0 0.0
2018-Apr-15 05:25N 35°39' E 139°46'3 7.5
2018-Apr-15 05:01N 35°36' E 139°47'1 2.3
2018-Apr-15 04:30N 35°37' E 139°46'2 3.1
2018-Apr-15 03:52N 35°39' E 139°46'0 0.0
2018-Apr-15 03:24N 35°39' E 139°46'0 0.1
2018-Apr-15 02:58N 35°39' E 139°46'0 0.1
2018-Apr-15 02:29N 35°39' E 139°46'0 0.0
2018-Apr-15 02:00N 35°39' E 139°46'0 0.0
2018-Apr-15 01:26N 35°39' E 139°46'0 0.0
2018-Apr-15 01:00N 35°39' E 139°46'0 0.0
2018-Apr-15 00:27N 35°39' E 139°46'0 0.0
2018-Apr-14 23:58N 35°39' E 139°46'0 0.0
2018-Apr-14 23:27N 35°39' E 139°46'0 0.0
2018-Apr-14 22:58N 35°39' E 139°46'1 2.6
2018-Apr-14 22:30N 35°38' E 139°46'5 8.9
2018-Apr-14 21:58N 35°36' E 139°51'4 7.6
2018-Apr-14 21:30N 35°33' E 139°54'1 1.9
2018-Apr-14 21:00N 35°34' E 139°53'5 9.1
2018-Apr-14 20:31N 35°35' E 139°48'4 7.6
2018-Apr-14 20:00N 35°38' E 139°45'1 1.4
2018-Apr-14 19:28N 35°39' E 139°46'0 0.0
2018-Apr-14 19:00N 35°39' E 139°46'0 0.0
2018-Apr-14 17:41N 35°39' E 139°46'0 0.3
2018-Apr-14 17:29N 35°39' E 139°46'0 0.0
2018-Apr-14 16:59N 35°39' E 139°46'0 0.0
2018-Apr-14 16:30N 35°39' E 139°46'0 0.0
2018-Apr-14 15:59N 35°39' E 139°46'0 0.0
2018-Apr-14 15:29N 35°39' E 139°46'0 0.0
2018-Apr-14 15:00N 35°39' E 139°46'0 0.0
2018-Apr-14 14:30N 35°39' E 139°46'0 0.0
2018-Apr-14 13:56N 35°39' E 139°46'0 0.0
2018-Apr-14 13:30N 35°39' E 139°46'0 0.0
2018-Apr-14 13:00N 35°39' E 139°46'0 0.0
2018-Apr-14 12:30N 35°39' E 139°46'0 0.0
2018-Apr-14 11:58N 35°39' E 139°46'0 0.0
2018-Apr-14 11:29N 35°39' E 139°46'0 0.0
2018-Apr-14 11:00N 35°39' E 139°46'0 0.0
2018-Apr-14 10:30N 35°39' E 139°46'0 0.0
2018-Apr-14 10:00N 35°39' E 139°46'0 0.0
2018-Apr-14 09:29N 35°39' E 139°46'0 0.0
2018-Apr-14 09:00N 35°39' E 139°46'0 0.0
2018-Apr-14 08:29N 35°39' E 139°46'0 0.0
2018-Apr-14 07:59N 35°39' E 139°46'0 0.0
2018-Apr-14 07:22N 35°39' E 139°46'0 0.0
2018-Apr-14 07:00N 35°39' E 139°46'0 0.0
2018-Apr-14 06:28N 35°39' E 139°46'0 0.0
2018-Apr-14 05:53N 35°39' E 139°46'3 8.2
2018-Apr-14 05:31N 35°36' E 139°47'1 2.0
2018-Apr-14 05:00N 35°37' E 139°47'0 0.0
2018-Apr-14 04:29N 35°37' E 139°47'1 1.8
2018-Apr-14 04:00N 35°36' E 139°48'1 1.5
2018-Apr-14 03:30N 35°36' E 139°47'1 2.0
2018-Apr-14 03:01N 35°35' E 139°47'1 1.1
2018-Apr-14 02:30N 35°35' E 139°47'0 0.4
2018-Apr-14 01:38N 35°36' E 139°46'0 0.0
2018-Apr-14 01:29N 35°36' E 139°46'1 1.7
2018-Apr-14 01:00N 35°36' E 139°47'2 4.6
2018-Apr-14 00:30N 35°38' E 139°46'1 2.1
2018-Apr-14 00:00N 35°39' E 139°46'0 0.0
2018-Apr-13 23:30N 35°39' E 139°46'0 0.0
2018-Apr-13 22:59N 35°39' E 139°46'0 0.0
2018-Apr-13 22:30N 35°39' E 139°46'0 0.0
2018-Apr-13 22:00N 35°39' E 139°46'0 0.0
2018-Apr-13 21:27N 35°39' E 139°46'0 0.1
2018-Apr-13 20:51N 35°39' E 139°46'0 0.1
2018-Apr-13 20:22N 35°39' E 139°46'0 0.0
2018-Apr-13 19:38N 35°39' E 139°46'0 0.0
2018-Apr-13 19:14N 35°39' E 139°46'0 0.0
2018-Apr-13 18:51N 35°39' E 139°46'0 0.0
2018-Apr-13 18:27N 35°39' E 139°46'0 0.0
2018-Apr-13 17:11N 35°39' E 139°46'0 0.0
2018-Apr-13 16:52N 35°39' E 139°46'0 0.0
2018-Apr-13 16:19N 35°39' E 139°46'0 0.0
2018-Apr-13 15:53N 35°39' E 139°46'0 0.0
2018-Apr-13 15:29N 35°39' E 139°46'0 0.0
2018-Apr-13 15:00N 35°39' E 139°46'0 0.0
2018-Apr-13 14:29N 35°39' E 139°46'0 0.0
2018-Apr-13 14:00N 35°39' E 139°46'0 0.0
2018-Apr-13 13:29N 35°39' E 139°46'0 0.0
2018-Apr-13 13:00N 35°39' E 139°46'0 0.0
2018-Apr-13 12:30N 35°39' E 139°46'0 0.0
2018-Apr-13 12:00N 35°39' E 139°46'0 0.0
2018-Apr-13 11:30N 35°39' E 139°46'0 0.0
2018-Apr-13 11:00N 35°39' E 139°46'0 0.0
2018-Apr-13 10:21N 35°39' E 139°46'0 0.0
2018-Apr-13 09:59N 35°39' E 139°46'0 0.0
2018-Apr-13 09:30N 35°39' E 139°46'0 0.0
2018-Apr-13 08:41N 35°39' E 139°46'0 0.0
2018-Apr-13 08:23N 35°39' E 139°46'0 0.0
2018-Apr-13 07:36N 35°39' E 139°46'0 0.0
2018-Apr-13 07:23N 35°39' E 139°46'0 0.0
2018-Apr-13 06:50N 35°39' E 139°46'0 0.0
2018-Apr-13 06:28N 35°39' E 139°46'0 0.0
2018-Apr-13 05:53N 35°39' E 139°46'0 0.0
2018-Apr-13 05:23N 35°39' E 139°46'1 3.4
2018-Apr-13 05:00N 35°37' E 139°46'  

Dump ship's entire track history